createdAt,value
2023-06-29T00:01:00.337Z,18.61
2023-06-29T00:04:02.803Z,18.53
2023-06-29T00:07:04.776Z,18.43
2023-06-29T00:10:09.081Z,18.54
2023-06-29T00:13:10.575Z,18.56
2023-06-29T00:16:12.142Z,18.57
2023-06-29T00:19:15.610Z,18.40
2023-06-29T00:22:18.521Z,18.37
2023-06-29T00:25:20.622Z,18.28
2023-06-29T00:28:22.224Z,18.31
2023-06-29T00:31:25.353Z,18.33
2023-06-29T00:34:29.883Z,18.45
2023-06-29T00:37:38.945Z,18.33
2023-06-29T00:40:40.491Z,18.42
2023-06-29T00:44:09.023Z,18.23
2023-06-29T00:47:23.030Z,18.13
2023-06-29T00:50:25.669Z,18.04
2023-06-29T00:53:36.167Z,17.99
2023-06-29T00:56:38.673Z,18.01
2023-06-29T00:59:40.205Z,18.08
2023-06-29T01:02:47.767Z,17.97
2023-06-29T01:05:51.829Z,17.92
2023-06-29T01:09:13.467Z,17.83
2023-06-29T01:12:16.781Z,17.85
2023-06-29T01:15:28.257Z,17.80
2023-06-29T01:18:31.655Z,17.81
2023-06-29T01:21:38.679Z,17.60
2023-06-29T01:24:43.453Z,17.55
2023-06-29T01:28:10.274Z,17.52
2023-06-29T01:31:14.860Z,17.44
2023-06-29T01:34:22.568Z,17.45
2023-06-29T01:37:29.594Z,17.46
2023-06-29T01:40:38.167Z,17.50
2023-06-29T01:44:12.644Z,17.52
2023-06-29T01:47:17.032Z,17.51
2023-06-29T01:50:26.570Z,17.50
2023-06-29T01:53:32.905Z,17.42
2023-06-29T01:56:38.360Z,17.34
2023-06-29T01:59:40.901Z,17.38
2023-06-29T02:02:43.082Z,17.40
2023-06-29T02:05:48.140Z,17.34
2023-06-29T02:08:52.969Z,17.25
2023-06-29T02:12:09.362Z,17.21
2023-06-29T02:15:18.319Z,17.22
2023-06-29T02:18:20.997Z,17.21
2023-06-29T02:21:22.636Z,17.10
2023-06-29T02:27:39.990Z,17.12
2023-06-29T02:30:41.670Z,17.31
2023-06-29T02:33:53.400Z,17.52
2023-06-29T02:36:56.698Z,17.60
2023-06-29T02:40:13.699Z,17.48
2023-06-29T02:43:16.494Z,17.38
2023-06-29T02:46:25.817Z,16.92
2023-06-29T02:49:27.719Z,16.84
2023-06-29T02:52:35.671Z,16.93
2023-06-29T02:55:45.393Z,16.88
2023-06-29T02:58:47.151Z,16.87
2023-06-29T03:01:57.206Z,16.85
2023-06-29T03:04:58.789Z,16.69
2023-06-29T03:08:03.305Z,16.70
2023-06-29T03:11:07.008Z,16.72
2023-06-29T03:14:15.974Z,16.73
2023-06-29T03:17:17.617Z,16.64
2023-06-29T03:20:26.551Z,16.70
2023-06-29T03:23:37.342Z,16.67
2023-06-29T03:26:39.792Z,16.60
2023-06-29T03:29:44.350Z,16.68
2023-06-29T03:32:46.029Z,16.63
2023-06-29T03:35:50.444Z,16.58
2023-06-29T03:38:52.260Z,16.53
2023-06-29T03:41:53.829Z,16.68
2023-06-29T03:48:21.154Z,16.70
2023-06-29T03:51:24.001Z,16.76
2023-06-29T03:54:26.871Z,16.68
2023-06-29T04:00:44.027Z,16.61
2023-06-29T04:03:46.079Z,16.64
2023-06-29T04:06:47.754Z,16.67
2023-06-29T04:09:51.700Z,16.72
2023-06-29T04:12:53.207Z,16.83
2023-06-29T04:19:10.473Z,16.94
2023-06-29T04:22:12.079Z,16.96
2023-06-29T04:25:13.835Z,17.01
2023-06-29T04:28:15.486Z,17.02
2023-06-29T04:31:17.109Z,17.01
2023-06-29T04:34:18.841Z,17.13
2023-06-29T04:37:39.551Z,17.25
2023-06-29T04:40:41.171Z,17.29
2023-06-29T04:43:52.323Z,17.35
2023-06-29T04:46:54.042Z,17.44
2023-06-29T04:49:57.975Z,17.51
2023-06-29T04:53:00.294Z,17.52
2023-06-29T04:56:05.270Z,17.69
2023-06-29T05:02:25.170Z,17.93
2023-06-29T05:05:29.019Z,18.08
2023-06-29T05:08:33.385Z,18.19
2023-06-29T05:11:35.686Z,18.30
2023-06-29T05:14:37.303Z,18.38
2023-06-29T05:17:38.894Z,18.36
2023-06-29T05:20:40.434Z,18.44
2023-06-29T05:24:10.331Z,18.51
2023-06-29T05:27:12.055Z,18.61
2023-06-29T05:30:14.594Z,18.66
2023-06-29T05:33:22.212Z,18.80
2023-06-29T05:36:23.755Z,18.89
2023-06-29T05:39:28.046Z,18.99
2023-06-29T05:42:32.514Z,19.14
2023-06-29T05:45:43.309Z,19.31
2023-06-29T05:48:45.034Z,19.36
2023-06-29T05:52:01.001Z,19.37
2023-06-29T05:55:27.769Z,19.54
2023-06-29T05:58:44.550Z,19.60
2023-06-29T06:01:46.281Z,19.53
2023-06-29T06:05:09.803Z,19.74
2023-06-29T06:08:12.321Z,19.77
2023-06-29T06:11:14.997Z,19.95
2023-06-29T06:14:17.040Z,19.99
2023-06-29T06:17:18.886Z,20.01
2023-06-29T06:20:20.510Z,20.07
2023-06-29T06:23:25.045Z,20.19
2023-06-29T06:26:27.071Z,20.27
2023-06-29T06:29:31.739Z,20.26
2023-06-29T06:32:33.359Z,20.33
2023-06-29T06:35:37.014Z,20.33
2023-06-29T06:38:49.495Z,20.24
2023-06-29T06:41:51.961Z,20.21
2023-06-29T06:45:00.936Z,20.17
2023-06-29T06:48:02.542Z,20.26
2023-06-29T06:51:08.074Z,20.19
2023-06-29T06:54:11.775Z,20.34
2023-06-29T06:57:13.366Z,20.35
2023-06-29T07:00:15.499Z,20.26
2023-06-29T07:03:17.195Z,20.36
2023-06-29T07:06:19.717Z,20.46
2023-06-29T07:09:21.389Z,20.47
2023-06-29T07:12:32.215Z,20.50
2023-06-29T07:15:33.781Z,20.55
2023-06-29T07:18:39.261Z,20.55
2023-06-29T07:21:43.486Z,20.65
2023-06-29T07:24:45.166Z,21.15
2023-06-29T07:27:54.026Z,21.37
2023-06-29T07:31:14.368Z,21.17
2023-06-29T07:34:16.367Z,21.29
2023-06-29T07:37:19.981Z,21.97
2023-06-29T07:40:29.504Z,22.50
2023-06-29T07:43:31.881Z,23.07
2023-06-29T07:46:33.579Z,23.10
2023-06-29T07:49:42.623Z,23.17
2023-06-29T07:52:44.205Z,23.28
2023-06-29T07:59:33.863Z,23.59
2023-06-29T08:02:35.443Z,23.89
2023-06-29T08:08:41.911Z,23.89
2023-06-29T08:11:50.759Z,23.95
2023-06-29T08:14:52.288Z,23.94
2023-06-29T08:17:53.950Z,23.80
2023-06-29T08:20:55.511Z,24.14
2023-06-29T08:24:03.375Z,24.46
2023-06-29T08:27:05.179Z,24.68
2023-06-29T08:30:25.418Z,24.05
2023-06-29T08:33:27.407Z,24.13
2023-06-29T08:36:34.526Z,24.30
2023-06-29T08:39:36.234Z,24.40
2023-06-29T08:42:41.360Z,24.53
2023-06-29T08:45:44.830Z,24.85
2023-06-29T08:48:47.151Z,25.26
2023-06-29T08:51:52.063Z,25.49
2023-06-29T08:54:54.434Z,25.94
2023-06-29T08:57:56.070Z,25.84
2023-06-29T09:00:58.682Z,26.02
2023-06-29T09:04:03.550Z,25.98
2023-06-29T09:07:07.769Z,25.86
2023-06-29T09:10:12.170Z,25.77
2023-06-29T09:13:14.701Z,25.95
2023-06-29T09:16:31.529Z,26.22
2023-06-29T09:19:33.281Z,26.90
2023-06-29T09:22:52.474Z,26.97
2023-06-29T09:26:05.410Z,26.79
2023-06-29T09:29:25.453Z,27.30
2023-06-29T09:32:29.920Z,27.68
2023-06-29T09:35:31.457Z,28.06
2023-06-29T09:38:33.591Z,28.25
2023-06-29T09:42:08.067Z,28.11
2023-06-29T09:45:33.445Z,28.36
2023-06-29T09:52:03.159Z,27.75
2023-06-29T09:55:04.943Z,28.49
2023-06-29T09:58:08.161Z,28.58
2023-06-29T10:01:10.961Z,28.82
2023-06-29T10:04:12.710Z,27.75
2023-06-29T10:07:20.834Z,28.18
2023-06-29T10:10:26.023Z,28.16
2023-06-29T10:13:34.955Z,28.15
2023-06-29T10:16:42.006Z,28.30
2023-06-29T10:20:05.200Z,28.13
2023-06-29T10:23:08.602Z,27.74
2023-06-29T10:26:13.650Z,27.53
2023-06-29T10:29:17.589Z,27.72
2023-06-29T10:32:35.669Z,27.77
2023-06-29T10:35:37.758Z,28.00
2023-06-29T10:38:45.489Z,28.08
2023-06-29T10:41:49.623Z,28.52
2023-06-29T10:44:51.763Z,28.65
2023-06-29T10:48:05.803Z,28.21
2023-06-29T10:51:15.035Z,28.26
2023-06-29T10:54:17.577Z,28.09
2023-06-29T10:57:31.849Z,28.15
2023-06-29T11:00:40.927Z,28.43
2023-06-29T11:03:43.367Z,28.50
2023-06-29T11:06:45.058Z,28.82
2023-06-29T11:10:07.359Z,28.39
2023-06-29T11:13:10.594Z,28.85
2023-06-29T11:16:13.819Z,29.12
2023-06-29T11:19:15.491Z,28.94
2023-06-29T11:22:20.912Z,28.70
2023-06-29T11:25:22.640Z,28.60
2023-06-29T11:28:29.457Z,28.37
2023-06-29T11:31:31.560Z,28.46
2023-06-29T11:34:35.524Z,28.71
2023-06-29T11:37:41.375Z,29.10
2023-06-29T11:40:42.963Z,29.50
2023-06-29T11:43:45.127Z,29.70
2023-06-29T11:46:54.704Z,29.67
2023-06-29T11:50:09.129Z,29.97
2023-06-29T11:53:11.701Z,29.99
2023-06-29T11:56:38.467Z,29.84
2023-06-29T11:59:43.098Z,30.02
2023-06-29T12:02:46.002Z,30.34
2023-06-29T12:05:48.614Z,29.73
2023-06-29T12:08:54.920Z,30.25
2023-06-29T12:12:09.685Z,30.22
2023-06-29T12:15:16.709Z,30.04
2023-06-29T12:18:29.259Z,30.21
2023-06-29T12:21:42.494Z,30.02
2023-06-29T12:24:53.742Z,29.91
2023-06-29T12:27:55.327Z,30.66
2023-06-29T12:31:09.696Z,30.65
2023-06-29T12:34:11.266Z,30.70
2023-06-29T12:37:15.833Z,30.51
2023-06-29T12:40:19.811Z,30.23
2023-06-29T12:43:21.358Z,30.05
2023-06-29T12:49:43.610Z,30.11
2023-06-29T12:52:48.218Z,30.07
2023-06-29T12:55:49.932Z,30.28
2023-06-29T12:58:51.618Z,29.99
2023-06-29T13:02:23.519Z,30.04
2023-06-29T13:05:22.880Z,29.87
2023-06-29T13:08:36.687Z,30.08
2023-06-29T13:11:45.485Z,30.07
2023-06-29T13:14:51.148Z,29.96
2023-06-29T13:17:55.974Z,29.90
2023-06-29T13:21:01.005Z,29.82
2023-06-29T13:24:02.979Z,29.88
2023-06-29T13:27:05.485Z,29.87
2023-06-29T13:30:08.787Z,29.48
2023-06-29T13:33:17.696Z,29.68
2023-06-29T13:36:19.208Z,29.63
2023-06-29T13:39:20.742Z,29.76
2023-06-29T13:42:23.669Z,29.62
2023-06-29T13:45:25.324Z,29.23
2023-06-29T13:48:27.912Z,29.57
2023-06-29T13:51:30.615Z,29.82
2023-06-29T13:54:32.243Z,30.04
2023-06-29T13:57:36.795Z,29.82
2023-06-29T14:00:38.878Z,29.25
2023-06-29T14:03:40.586Z,29.60
2023-06-29T14:06:48.061Z,29.55
2023-06-29T14:09:55.899Z,29.20
2023-06-29T14:12:59.604Z,29.28
2023-06-29T14:16:04.393Z,29.32
2023-06-29T14:19:06.728Z,29.69
2023-06-29T14:22:09.747Z,29.89
2023-06-29T14:25:11.376Z,30.33
2023-06-29T14:28:19.987Z,30.11
2023-06-29T14:31:21.651Z,29.79
2023-06-29T14:34:23.372Z,30.18
2023-06-29T14:37:26.045Z,30.45
2023-06-29T14:40:27.577Z,30.45
2023-06-29T14:43:30.223Z,30.99
2023-06-29T14:46:33.392Z,30.89
2023-06-29T14:49:35.207Z,30.68
2023-06-29T14:52:39.395Z,30.73
2023-06-29T14:55:40.983Z,31.14
2023-06-29T14:58:42.922Z,31.50
2023-06-29T15:01:47.817Z,31.68
2023-06-29T15:04:51.006Z,31.71
2023-06-29T15:07:58.800Z,31.43
2023-06-29T15:11:00.881Z,31.48
2023-06-29T15:14:02.381Z,31.45
2023-06-29T15:17:09.594Z,31.45
2023-06-29T15:20:16.401Z,31.29
2023-06-29T15:23:18.094Z,31.31
2023-06-29T15:26:23.942Z,31.48
2023-06-29T15:29:28.200Z,31.63
2023-06-29T15:32:33.668Z,31.92
2023-06-29T15:38:53.631Z,32.07
2023-06-29T15:41:56.852Z,31.86
2023-06-29T15:44:58.522Z,32.04
2023-06-29T15:48:00.267Z,31.77
2023-06-29T15:51:03.422Z,31.45
2023-06-29T15:54:05.182Z,31.40
2023-06-29T15:57:06.959Z,31.63
2023-06-29T16:00:09.085Z,31.71
2023-06-29T16:03:19.681Z,31.75
2023-06-29T16:06:29.756Z,31.93
2023-06-29T16:09:35.585Z,31.38
2023-06-29T16:12:37.156Z,31.08
2023-06-29T16:15:38.754Z,31.37
2023-06-29T16:18:41.427Z,31.48
2023-06-29T16:21:43.461Z,31.19
2023-06-29T16:24:45.022Z,31.21
2023-06-29T16:27:52.627Z,30.68
2023-06-29T16:30:55.022Z,30.79
2023-06-29T16:33:56.547Z,31.04
2023-06-29T16:36:59.161Z,30.74
2023-06-29T16:40:00.769Z,30.78
2023-06-29T16:43:02.378Z,30.62
2023-06-29T16:46:06.092Z,30.91
2023-06-29T16:49:09.949Z,30.99
2023-06-29T16:52:13.731Z,31.04
2023-06-29T16:55:22.469Z,31.22
2023-06-29T16:58:27.691Z,31.30
2023-06-29T17:01:29.312Z,31.43
2023-06-29T17:04:41.241Z,31.08
2023-06-29T17:07:42.809Z,30.94
2023-06-29T17:10:44.379Z,30.68
2023-06-29T17:13:46.245Z,30.15
2023-06-29T17:16:47.818Z,30.27
2023-06-29T17:19:50.199Z,30.29
2023-06-29T17:22:52.246Z,29.99
2023-06-29T17:25:53.804Z,29.75
2023-06-29T17:28:55.438Z,29.60
2023-06-29T17:31:57.194Z,29.16
2023-06-29T17:34:58.923Z,29.22
2023-06-29T17:38:04.669Z,29.09
2023-06-29T17:41:06.215Z,28.56
2023-06-29T17:44:07.715Z,28.54
2023-06-29T17:47:09.354Z,28.66
2023-06-29T17:50:16.030Z,28.73
2023-06-29T17:53:17.588Z,28.52
2023-06-29T17:56:24.031Z,28.62
2023-06-29T17:59:25.616Z,28.17
2023-06-29T18:02:32.764Z,28.13
2023-06-29T18:05:34.432Z,28.15
2023-06-29T18:08:35.969Z,28.05
2023-06-29T18:11:37.484Z,27.93
2023-06-29T18:14:46.018Z,27.82
2023-06-29T18:17:56.570Z,27.80
2023-06-29T18:21:00.838Z,27.67
2023-06-29T18:24:06.595Z,27.55
2023-06-29T18:30:23.519Z,27.53
2023-06-29T18:33:37.401Z,27.50
2023-06-29T18:36:38.936Z,27.29
2023-06-29T18:39:40.694Z,27.12
2023-06-29T18:42:42.270Z,27.03
2023-06-29T18:45:44.124Z,26.99
2023-06-29T18:49:05.432Z,26.80
2023-06-29T18:52:07.893Z,26.81
2023-06-29T18:55:12.549Z,26.75
2023-06-29T18:58:14.242Z,26.53
2023-06-29T19:01:16.749Z,26.34
2023-06-29T19:04:18.315Z,25.95
2023-06-29T19:07:22.703Z,25.70
2023-06-29T19:10:24.348Z,25.48
2023-06-29T19:13:27.311Z,25.43
2023-06-29T19:16:29.329Z,25.35
2023-06-29T19:19:34.423Z,25.25
2023-06-29T19:22:36.326Z,25.18
2023-06-29T19:25:42.900Z,25.22
2023-06-29T19:28:46.300Z,25.22
2023-06-29T19:31:50.098Z,25.20
2023-06-29T19:34:52.145Z,25.10
2023-06-29T19:37:54.051Z,25.04
2023-06-29T19:40:55.711Z,24.87
2023-06-29T19:43:57.266Z,24.88
2023-06-29T19:46:58.961Z,24.85
2023-06-29T19:50:00.665Z,24.73
2023-06-29T19:53:05.771Z,24.74
2023-06-29T19:56:09.730Z,24.69
2023-06-29T19:59:11.609Z,24.60
2023-06-29T20:02:13.391Z,24.53
2023-06-29T20:05:15.246Z,24.51
2023-06-29T20:08:20.956Z,24.43
2023-06-29T20:11:23.999Z,24.30
2023-06-29T20:14:30.141Z,24.23
2023-06-29T20:17:32.388Z,24.19
2023-06-29T20:20:33.964Z,24.11
2023-06-29T20:23:37.411Z,24.05
2023-06-29T20:26:41.249Z,23.98
2023-06-29T20:29:42.753Z,23.87
2023-06-29T20:32:47.494Z,23.82
2023-06-29T20:35:49.086Z,23.84
2023-06-29T20:38:50.618Z,23.74
2023-06-29T20:41:52.194Z,23.70
2023-06-29T20:48:12.993Z,23.69
2023-06-29T20:51:18.524Z,23.70
2023-06-29T20:54:20.252Z,23.62
2023-06-29T20:57:22.545Z,23.63
2023-06-29T21:00:27.162Z,23.52
2023-06-29T21:03:34.300Z,23.48
2023-06-29T21:06:36.980Z,23.49
2023-06-29T21:09:38.587Z,23.50
2023-06-29T21:12:40.470Z,23.46
2023-06-29T21:15:42.288Z,23.43
2023-06-29T21:18:44.368Z,23.35
2023-06-29T21:21:46.617Z,23.36
2023-06-29T21:24:48.580Z,23.34
2023-06-29T21:27:52.679Z,23.31
2023-06-29T21:30:54.537Z,23.30
2023-06-29T21:33:56.345Z,23.31
2023-06-29T21:37:00.738Z,23.22
2023-06-29T21:40:02.297Z,23.17
2023-06-29T21:43:06.418Z,23.05
2023-06-29T21:46:08.479Z,23.04
2023-06-29T21:49:10.341Z,23.01
2023-06-29T21:52:11.944Z,22.90
2023-06-29T21:55:17.943Z,22.86
2023-06-29T21:58:22.430Z,22.85
2023-06-29T22:01:30.251Z,22.71
2023-06-29T22:04:34.169Z,22.73
2023-06-29T22:07:40.921Z,22.72
2023-06-29T22:10:42.507Z,22.71
2023-06-29T22:13:59.304Z,22.63
2023-06-29T22:17:08.383Z,22.65
2023-06-29T22:20:14.440Z,22.62
2023-06-29T22:23:16.060Z,22.57
2023-06-29T22:26:23.727Z,22.46
2023-06-29T22:29:26.988Z,22.43
2023-06-29T22:32:38.930Z,22.30
2023-06-29T22:35:42.857Z,21.78
2023-06-29T22:38:46.573Z,21.65
2023-06-29T22:41:48.250Z,21.63
2023-06-29T22:44:50.215Z,21.41
2023-06-29T22:47:52.528Z,21.32
2023-06-29T22:50:56.679Z,21.40
2023-06-29T22:54:01.010Z,21.54
2023-06-29T22:57:02.792Z,21.60
2023-06-29T23:00:07.942Z,21.71
2023-06-29T23:03:09.628Z,21.72
2023-06-29T23:06:11.693Z,21.77
2023-06-29T23:09:22.077Z,21.79
2023-06-29T23:12:26.853Z,21.81
2023-06-29T23:15:30.707Z,21.84
2023-06-29T23:18:32.251Z,21.90
2023-06-29T23:21:33.762Z,21.87
2023-06-29T23:24:35.871Z,21.88
2023-06-29T23:27:55.658Z,21.83
2023-06-29T23:30:57.633Z,21.88
2023-06-29T23:34:04.333Z,21.79
2023-06-29T23:37:08.674Z,21.85
2023-06-29T23:40:16.836Z,21.71
2023-06-29T23:43:18.632Z,21.72
2023-06-29T23:46:26.400Z,21.65
2023-06-29T23:49:28.268Z,21.55
2023-06-29T23:52:32.888Z,21.58
2023-06-29T23:55:34.625Z,21.73
2023-06-29T23:58:39.710Z,21.64
